Flight Track Log - Related Links

Times and Time Zones

All times are in EDT time to prevent confusion due to time zone crossing. See the JUS196 flight status page for this flight to view local times or setup timezone preferences in your user account.

Time Position Orientation Groundspeed Altitude Reporting Facility
EDT Latitude Longitude Course Direction KTS MPH feet Rate Location/Type
Tue 12:36:16 AM 27.5025 -99.4097 112° Southeast 212 244 3,300  Level Houston Center
Tue 12:37:16 AM 27.5678 -99.3717 27° Northeast 259 298 5,000 2,529 Climbing Houston Center
Tue 12:38:17 AM 27.6417 -99.3417 20° North 277 319 8,400 2,876 Climbing Houston Center
Tue 12:39:00 AM 28.1965 -99.1424 21° North  Level FlightAware Approximate
Tue 12:39:17 AM 27.7175 -99.3075 22° Northeast 284 327 10,800  Level Houston Center
Tue 12:40:00 AM 28.3079 -99.0929 21° North  Level FlightAware Approximate
Tue 12:40:17 AM 27.8069 -99.2694 21° North 329 379 12,900  Level Houston Center
Tue 12:41:18 AM 27.8981 -99.2294 21° North 350 403 15,700 2,826 Climbing Houston Center
Tue 12:42:18 AM 27.9900 -99.1886 21° North 352 405 18,600 2,380 Climbing Houston Center
Tue 12:43:19 AM 28.0797 -99.1486 21° North 347 399 20,500 1,537 Climbing Houston Center
Tue 12:44:19 AM 28.1783 -99.1072 20° North 371 427 21,700 1,450 Climbing Houston Center
Tue 12:45:19 AM 28.2839 -99.0608 21° North 400 460 23,400 1,785 Climbing Houston Center
Tue 12:46:20 AM 28.3894 -99.0161 20° North 404 465 25,300 1,736 Climbing Houston Center
Tue 12:47:20 AM 28.4947 -98.9686 22° Northeast 406 467 26,900 1,700 Climbing Houston Center
Tue 12:48:20 AM 28.6239 -98.9128 21° North 412 474 28,700 1,537 Climbing Houston Center
Tue 12:49:21 AM 28.7297 -98.8644 22° Northeast 417 480 30,000 1,091 Climbing Houston Center
Tue 12:50:21 AM 28.8422 -98.8178 20° North 429 494 30,900 843 Climbing Houston Center
Tue 12:51:22 AM 28.9569 -98.7656 22° Northeast 442 509 31,700 893 Climbing Houston Center
Tue 12:52:22 AM 29.0750 -98.7183 19° North 450 518 32,700 1,050 Climbing Houston Center
Tue 12:53:22 AM 29.2011 -98.6578 23° Northeast 455 524 33,800 992 Climbing Houston Center
Tue 12:54:23 AM 29.3197 -98.6081 20° North 452 520 34,700 595 Climbing Houston Center
Tue 12:55:23 AM 29.4358 -98.5522 23° Northeast 452 520 35,000 100 Climbing Houston Center
Tue 12:56:23 AM 29.5558 -98.5047 19° North 465 535 34,900  Descending Houston Center
Tue 12:57:24 AM 29.6697 -98.4525 22° Northeast 457 526 35,000 50 Climbing Houston Center
Tue 12:58:24 AM 29.7844 -98.4178 15° North 423 487 35,000  Level Houston Center
Tue 12:59:24 AM 29.8989 -98.4242 357° North 411 473 35,000  Level Houston Center
Tue 01:00:25 AM 30.0233 -98.4203 North 417 480 35,000  Level Houston Center
Tue 01:01:25 AM 30.1417 -98.4000 North 437 503 35,000  Level Houston Center
Tue 01:02:25 AM 30.2522 -98.3844 North 421 484 35,000  Level Houston Center
Tue 01:03:26 AM 30.3619 -98.3786 North 427 491 35,000  Level Houston Center
Tue 01:04:26 AM 30.4839 -98.3403 15° North 447 514 35,000  Level Houston Center
Tue 01:05:26 AM 30.6064 -98.3233 North 437 503 35,000  Level Houston Center
Tue 01:06:26 AM 30.7272 -98.3153 North 429 494 35,000  Level Houston Center
Tue 01:07:27 AM 30.8494 -98.2964 North 435 501 35,000  Level Houston Center
Tue 01:08:19 AM 30.9514 -98.2903 North 441 507 35,000  Level Fort Worth Center
Tue 01:09:19 AM 31.0744 -98.2744 North 436 502 35,000  Level Fort Worth Center
Tue 01:10:19 AM 31.1958 -98.2608 North 436 502 35,000  Level Fort Worth Center
Tue 01:11:18 AM 31.3147 -98.2497 North 436 502 35,000  Level Fort Worth Center
Tue 01:12:19 AM 31.4486 -98.2194 11° North 436 502 35,000  Level Fort Worth Center
Tue 01:13:19 AM 31.5700 -98.1864 13° North 443 510 35,000  Level Fort Worth Center
Tue 01:14:19 AM 31.6808 -98.1286 24° Northeast 443 510 35,000  Level Fort Worth Center
Tue 01:15:19 AM 31.7839 -98.0292 39° Northeast 454 522 35,000  Level Fort Worth Center
Tue 01:16:19 AM 31.8906 -97.9419 35° Northeast 464 534 35,000  Level Fort Worth Center
Tue 01:17:18 AM 32.0017 -97.8714 28° Northeast 464 534 35,000  Level Fort Worth Center
Tue 01:18:18 AM 32.1000 -97.8008 31° Northeast 453 521 35,000  Level Fort Worth Center
Tue 01:19:18 AM 32.2067 -97.7106 36° Northeast 470 541 35,000  Level Fort Worth Center
Tue 01:20:18 AM 32.3197 -97.6322 30° Northeast 465 535 35,000  Level Fort Worth Center
Tue 01:21:18 AM 32.4283 -97.5536 31° Northeast 458 527 35,000  Level Fort Worth Center
Tue 01:22:18 AM 32.5347 -97.4628 36° Northeast 458 527 35,000  Level Fort Worth Center
Tue 01:23:18 AM 32.6433 -97.3839 31° Northeast 463 533 35,000  Level Fort Worth Center
Tue 01:24:18 AM 32.7456 -97.2972 35° Northeast 463 533 35,000  Level Fort Worth Center
Tue 01:25:18 AM 32.8436 -97.2206 33° Northeast 457 526 35,000  Level Fort Worth Center
Tue 01:26:18 AM 32.9728 -97.1236 32° Northeast 457 526 35,000  Level Fort Worth Center
Tue 01:27:18 AM 33.0728 -97.0514 31° Northeast 465 535 35,000  Level Fort Worth Center
Tue 01:28:18 AM 33.1833 -96.9792 29° Northeast 459 528 35,000  Level Fort Worth Center
Tue 01:29:18 AM 33.2894 -96.9017 31° Northeast 446 513 35,000  Level Fort Worth Center
Tue 01:30:18 AM 33.3978 -96.8311 29° Northeast 441 507 35,000  Level Fort Worth Center
Tue 01:31:18 AM 33.5081 -96.7483 32° Northeast 448 516 35,000  Level Fort Worth Center
Tue 01:32:18 AM 33.6286 -96.6650 30° Northeast 448 516 35,000  Level Fort Worth Center
Tue 01:33:18 AM 33.7386 -96.5892 30° Northeast 448 516 35,000  Level Fort Worth Center
Tue 01:34:18 AM 33.8486 -96.5081 31° Northeast 453 521 35,000  Level Fort Worth Center
Tue 01:35:18 AM 33.9608 -96.4344 29° Northeast 453 521 35,000  Level Fort Worth Center
Tue 01:36:18 AM 34.0708 -96.3503 32° Northeast 458 527 35,000  Level Fort Worth Center
Tue 01:37:18 AM 34.1619 -96.2864 30° Northeast 446 513 35,000  Level Fort Worth Center
Tue 01:38:18 AM 34.2697 -96.2097 30° Northeast 441 507 35,000  Level Fort Worth Center
Tue 01:39:18 AM 34.3775 -96.1253 33° Northeast 446 513 35,000  Level Fort Worth Center
Tue 01:40:18 AM 34.4872 -96.0556 28° Northeast 446 513 35,000  Level Fort Worth Center
Tue 01:41:18 AM 34.5950 -95.9731 32° Northeast 446 513 35,000  Level Fort Worth Center
Tue 01:42:18 AM 34.7067 -95.8903 31° Northeast 446 513 35,000  Level Fort Worth Center
Tue 01:43:18 AM 34.8183 -95.8150 29° Northeast 451 519 35,000  Level Fort Worth Center
Tue 01:44:18 AM 34.9214 -95.7119 39° Northeast 463 533 35,000  Level Fort Worth Center
Tue 01:46:22 AM 35.1411 -95.5017 38° Northeast 457 526 35,000  Level Memphis Center
Tue 01:47:22 AM 35.2450 -95.4089 36° Northeast 462 532 35,000  Level Memphis Center
Tue 01:48:22 AM 35.3469 -95.3106 38° Northeast 462 532 35,000  Level Memphis Center
Tue 01:49:22 AM 35.4528 -95.2200 35° Northeast 456 525 35,000  Level Memphis Center
Tue 01:50:22 AM 35.5525 -95.1211 39° Northeast 456 525 35,000  Level Memphis Center
Tue 01:51:22 AM 35.6544 -95.0222 38° Northeast 456 525 35,000  Level Memphis Center
Tue 01:52:22 AM 35.7558 -94.9258 38° Northeast 461 531 35,000  Level Memphis Center
Tue 01:53:22 AM 35.8578 -94.8211 40° Northeast 461 531 35,000  Level Memphis Center
Tue 01:55:47 AM 36.1072 -94.5786 38° Northeast 478 550 35,000  Level Kansas City Center
Tue 01:56:47 AM 36.2158 -94.4831 35° Northeast 479 551 35,000  Level Kansas City Center
Tue 01:57:47 AM 36.3222 -94.3819 37° Northeast 482 555 35,000  Level Kansas City Center
Tue 01:58:47 AM 36.4228 -94.2731 41° Northeast 483 556 35,000  Level Kansas City Center
Tue 01:59:47 AM 36.5300 -94.1725 37° Northeast 482 555 35,000  Level Kansas City Center
Tue 02:00:49 AM 36.6328 -94.0689 39° Northeast 478 550 35,000  Level Kansas City Center
Tue 02:01:48 AM 36.7347 -93.9617 40° Northeast 480 552 35,000  Level Kansas City Center
Tue 02:02:48 AM 36.8422 -93.8644 36° Northeast 477 549 35,000  Level Kansas City Center
Tue 02:03:51 AM 36.9394 -93.7589 41° Northeast 477 549 35,000  Level Kansas City Center
Tue 02:04:49 AM 37.0442 -93.6547 38° Northeast 478 550 35,000  Level Kansas City Center
Tue 02:05:49 AM 37.1508 -93.5550 37° Northeast 475 547 35,000  Level Kansas City Center
Tue 02:06:49 AM 37.2503 -93.4444 41° Northeast 475 547 35,000  Level Kansas City Center
Tue 02:07:49 AM 37.3544 -93.3503 36° Northeast 463 533 35,000  Level Kansas City Center
Tue 02:08:49 AM 37.4542 -93.2442 40° Northeast 463 533 35,000  Level Kansas City Center
Tue 02:09:50 AM 37.5575 -93.1475 37° Northeast 460 529 35,000  Level Kansas City Center
Tue 02:10:50 AM 37.6653 -93.0578 33° Northeast 460 529 35,000  Level Kansas City Center
Tue 02:11:52 AM 37.7675 -92.9528 39° Northeast 466 536 35,000  Level Kansas City Center
Tue 02:12:50 AM 37.8744 -92.8608 34° Northeast 460 529 35,000  Level Kansas City Center
Tue 02:13:51 AM 37.9844 -92.7556 37° Northeast 468 539 35,000  Level Kansas City Center
Tue 02:14:51 AM 38.0881 -92.6575 37° Northeast 466 536 35,000  Level Kansas City Center
Tue 02:15:51 AM 38.1947 -92.5633 35° Northeast 467 537 35,000  Level Kansas City Center
Tue 02:16:53 AM 38.2997 -92.4564 39° Northeast 471 542 35,000  Level Kansas City Center
Tue 02:17:51 AM 38.3728 -92.2983 59° Northeast 513 590 35,000  Level Kansas City Center
Tue 02:18:52 AM 38.4422 -92.1356 61° Northeast 520 598 35,000  Level Kansas City Center
Tue 02:19:52 AM 38.5217 -91.9864 56° Northeast 507 583 35,000  Level Kansas City Center
Tue 02:20:54 AM 38.5925 -91.8264 60° Northeast 513 590 35,000  Level Kansas City Center
Tue 02:21:52 AM 38.6733 -91.6753 56° Northeast 513 590 35,000  Level Kansas City Center
Tue 02:22:52 AM 38.7500 -91.5319 56° Northeast 516 594 35,000  Level Kansas City Center
Tue 02:23:55 AM 38.8264 -91.3786 57° Northeast 512 589 35,000  Level Kansas City Center
Tue 02:24:56 AM 38.8972 -91.2272 59° Northeast 500 575 35,000  Level Kansas City Center
Tue 02:25:53 AM 38.9689 -91.0811 58° Northeast 488 562 35,000  Level Kansas City Center
Tue 02:26:56 AM 39.0397 -90.9364 58° Northeast 480 552 35,000  Level Kansas City Center
Tue 02:27:54 AM 39.1111 -90.7906 58° Northeast 479 551 35,000  Level Kansas City Center
Tue 02:28:55 AM 39.1842 -90.6467 57° Northeast 478 550 35,000  Level Kansas City Center
Tue 02:29:55 AM 39.2536 -90.4944 59° Northeast 486 559 35,000  Level Kansas City Center
Tue 02:30:56 AM 39.3269 -90.3481 57° Northeast 486 559 35,000  Level Kansas City Center
Tue 02:31:57 AM 39.3975 -90.1981 59° Northeast 485 558 35,000  Level Kansas City Center
Tue 02:32:55 AM 39.4692 -90.0492 58° Northeast 488 562 35,000  Level Kansas City Center
Tue 02:33:55 AM 39.5422 -89.8989 58° Northeast 490 564 35,000  Level Kansas City Center
Tue 02:34:55 AM 39.6122 -89.7450 59° Northeast 493 567 35,000  Level Kansas City Center
Tue 02:35:57 AM 39.6864 -89.5978 57° Northeast 490 564 35,000  Level Kansas City Center
Tue 02:36:56 AM 39.7486 -89.4514 61° Northeast 489 563 35,000  Level Kansas City Center
Tue 02:37:56 AM 39.8197 -89.3022 58° Northeast 488 562 35,000  Level Kansas City Center
Tue 02:38:59 AM 39.8900 -89.1519 59° Northeast 488 562 35,000  Level Kansas City Center
Tue 02:39:57 AM 39.9600 -89.0042 58° Northeast 485 558 35,000  Level Kansas City Center
Tue 02:40:58 AM 40.0269 -88.8511 60° Northeast 486 559 35,000  Level Kansas City Center
Tue 02:41:57 AM 40.0969 -88.7025 58° Northeast 485 558 35,000  Level Kansas City Center
Tue 02:42:50 AM 40.1511 -88.5836 59° Northeast 485 558 35,000  Level Chicago Center
Tue 02:43:50 AM 40.2222 -88.4175 61° Northeast 483 556 35,000  Level Chicago Center
Tue 02:44:50 AM 40.2922 -88.2675 59° Northeast 486 559 35,000  Level Chicago Center
Tue 02:45:50 AM 40.3567 -88.1125 61° Northeast 488 562 35,000  Level Chicago Center
Tue 02:46:50 AM 40.4258 -87.9644 58° Northeast 483 556 35,000  Level Chicago Center
Tue 02:47:50 AM 40.4917 -87.8106 61° Northeast 487 560 35,000  Level Chicago Center
Tue 02:48:51 AM 40.5597 -87.6611 59° Northeast 481 554 35,000  Level Chicago Center
Tue 02:49:51 AM 40.6261 -87.5081 60° Northeast 486 559 35,000  Level Chicago Center
Tue 02:50:51 AM 40.7042 -87.3253 61° Northeast 484 557 35,000  Level Chicago Center
Tue 02:51:51 AM 40.7714 -87.1744 59° Northeast 483 556 35,000  Level Chicago Center
Tue 02:52:51 AM 40.8339 -87.0206 62° Northeast 482 555 35,000  Level Chicago Center
Tue 02:53:51 AM 40.9022 -86.8672 59° Northeast 485 558 35,000  Level Chicago Center
Tue 02:54:52 AM 40.9647 -86.7094 62° Northeast 490 564 35,000  Level Chicago Center
Tue 02:55:52 AM 41.0308 -86.5572 60° Northeast 488 562 35,000  Level Chicago Center
Tue 02:56:52 AM 41.0961 -86.3997 61° Northeast 489 563 35,000 -50 Level Chicago Center
Tue 02:57:52 AM 41.1614 -86.2444 61° Northeast 485 558 34,900 -600 Descending Chicago Center
Tue 02:58:52 AM 41.2253 -86.0947 60° Northeast 474 545 33,800 -1,438 Descending Chicago Center
Tue 03:00:00 AM 41.2803 -85.9316 58° Northeast  Level FlightAware Approximate
Tue 03:01:54 AM 41.4053 -85.6442 62° Northeast 463 533 29,100  Level Chicago Center
Tue 03:02:55 AM 41.4675 -85.4953 61° Northeast 465 535 27,300 -1,983 Descending Chicago Center
Tue 03:03:55 AM 41.5256 -85.3561 61° Northeast 452 520 25,100 -2,150 Descending Chicago Center
Tue 03:04:55 AM 41.5814 -85.2217 61° Northeast 432 497 23,000 -1,050 Descending Chicago Center
Tue 03:05:55 AM 41.6342 -85.0881 62° Northeast 417 480 23,000  Level Chicago Center
Tue 03:06:55 AM 41.6900 -84.9403 63° Northeast 444 511 23,000  Level Chicago Center
Tue 03:07:00 AM 41.6664 -84.9583 62° Northeast  Level FlightAware Approximate
Tue 03:07:55 AM 41.7639 -84.7631 61° Northeast 455 524 23,000  Level Chicago Center
Tue 03:08:56 AM 41.8208 -84.6183 62° Northeast 447 514 23,000 -1,114 Level Chicago Center
Tue 03:10:42 AM 41.9083 -84.3903 63° Northeast 400 460 19,900 -1,857 Descending FAA TRACON SMA TRACON (SMA)
Tue 03:11:02 AM 41.9292 -84.3358 63° Northeast 399 459 19,100 -2,400 Descending FAA TRACON SMA TRACON (SMA)
Tue 03:11:22 AM 41.9439 -84.2956 64° Northeast 395 455 18,300 -1,950 Descending FAA TRACON SMA TRACON (SMA)
Tue 03:11:42 AM 41.9556 -84.2592 67° East 390 449 17,800 -2,341 Descending FAA TRACON SMA TRACON (SMA)
Tue 03:12:03 AM 41.9786 -84.2081 59° Northeast 380 437 16,700 -3,000 Descending FAA TRACON SMA TRACON (SMA)
Tue 03:12:22 AM 41.9939 -84.1700 62° Northeast 379 436 15,800 -3,077 Descending FAA TRACON SMA TRACON (SMA)
Tue 03:12:42 AM 42.0128 -84.1228 62° Northeast 376 433 14,700 -2,850 Descending FAA TRACON SMA TRACON (SMA)
Tue 03:13:02 AM 42.0269 -84.0853 63° Northeast 371 427 13,900 -2,550 Descending FAA TRACON SMA TRACON (SMA)
Tue 03:13:22 AM 42.0417 -84.0489 61° Northeast 365 420 13,000 -2,550 Descending FAA TRACON SMA TRACON (SMA)
Tue 03:13:42 AM 42.0614 -84.0236 44° Northeast 355 409 12,200 -2,850 Descending FAA TRACON SMA TRACON (SMA)
Tue 03:14:02 AM 42.0928 -83.9900 38° Northeast 339 390 11,100 -2,700 Descending FAA TRACON SMA TRACON (SMA)
Tue 03:14:22 AM 42.1147 -83.9664 39° Northeast 331 381 10,400 -1,650 Descending FAA TRACON SMA TRACON (SMA)
Tue 03:14:42 AM 42.1328 -83.9447 42° Northeast 317 365 10,000 -1,950 Descending FAA TRACON SMA TRACON (SMA)
Tue 03:15:02 AM 42.1600 -83.9181 36° Northeast 299 344 9,100 -2,049 Descending FAA TRACON SMA TRACON (SMA)
Tue 03:15:23 AM 42.1794 -83.8975 38° Northeast 292 336 8,600 -1,650 Descending FAA TRACON SMA TRACON (SMA)
Tue 03:15:42 AM 42.1986 -83.8761 40° Northeast 290 334 8,000 -1,846 Descending FAA TRACON SMA TRACON (SMA)
Tue 03:16:02 AM 42.2217 -83.8483 42° Northeast 289 333 7,400 -1,350 Descending FAA TRACON SMA TRACON (SMA)
Tue 03:16:22 AM 42.2383 -83.8258 45° Northeast 275 316 7,100 -1,050 Descending FAA TRACON SMA TRACON (SMA)
Tue 03:16:42 AM 42.2553 -83.8047 43° Northeast 271 312 6,700 -1,350 Descending FAA TRACON SMA TRACON (SMA)
Tue 03:17:02 AM 42.2761 -83.7797 42° Northeast 262 302 6,200 -1,350 Descending FAA TRACON SMA TRACON (SMA)
Tue 03:17:22 AM 42.2919 -83.7597 43° Northeast 255 293 5,800 -1,171 Descending FAA TRACON SMA TRACON (SMA)
Tue 03:17:43 AM 42.3056 -83.7414 45° Northeast 238 274 5,400 -1,200 Descending FAA TRACON SMA TRACON (SMA)
Tue 03:18:02 AM 42.3114 -83.7122 75° East 221 254 5,000 -1,200 Descending FAA TRACON SMA TRACON (SMA)
Tue 03:18:23 AM 42.3039 -83.6950 120° Southeast 186 214 4,600 -1,317 Descending FAA TRACON SMA TRACON (SMA)
Tue 03:18:43 AM 42.2925 -83.6819 140° Southeast 179 206 4,100 -1,692 Descending FAA TRACON SMA TRACON (SMA)
Tue 03:19:02 AM 42.2783 -83.6667 141° Southeast 172 198 3,500 -1,692 Descending FAA TRACON SMA TRACON (SMA)
Tue 03:19:22 AM 42.2669 -83.6553 143° Southeast 167 192 3,000 -1,200 Descending FAA TRACON SMA TRACON (SMA)
Tue 03:19:42 AM 42.2567 -83.6450 143° Southeast 155 178 2,700 -1,024 Descending FAA TRACON SMA TRACON (SMA)
Tue 03:20:03 AM 42.2450 -83.6331 143° Southeast 139 160 2,300 -900 Descending FAA TRACON SMA TRACON (SMA)
Tue 03:20:22 AM 42.2375 -83.6219 132° Southeast 132 152 2,100 -600 Descending FAA TRACON SMA TRACON (SMA)
Tue 03:20:43 AM 42.2294 -83.6072 126° Southeast 129 148 1,900 -300 Descending FAA TRACON SMA TRACON (SMA)
Tue 03:21:02 AM 42.2231 -83.5967 129° Southeast 122 140 1,900 -308 Level FAA TRACON SMA TRACON (SMA)
Tue 03:21:22 AM 42.2178 -83.5850 121° Southeast 116 133 1,700 -732 Descending FAA TRACON SMA TRACON (SMA)
Tue 03:21:43 AM 42.2153 -83.5686 102° East 135 155 1,400 -750 Descending FAA TRACON SMA TRACON (SMA)
Tue 03:22:02 AM 42.2197 -83.5547 67° East 154 177 1,200 -450 Descending FAA TRACON SMA TRACON (SMA)
Tue 03:22:23 AM 42.2261 -83.5453 48° Northeast 144 166 1,100 -100 Descending FAA TRACON SMA TRACON (SMA)
Tue 03:23:02 AM 42.2261 -83.5453 56° Northeast 144 166 1,100  Level FAA TRACON SMA TRACON (SMA)

Login

Don't have an account? Register now (free) for customized features, flight alerts, and more!